sensor_id;sensor_type;location;lat;lon;timestamp;P1;durP1;ratioP1;P2;durP2;ratioP2
19219;SDS011;9744;49.364;7.484;2023-05-07T00:00:56;1.45;;;1.05;;
19219;SDS011;9744;49.364;7.484;2023-05-07T00:03:24;2.92;;;1.25;;
19219;SDS011;9744;49.364;7.484;2023-05-07T00:05:52;2.03;;;1.20;;
19219;SDS011;9744;49.364;7.484;2023-05-07T00:08:19;2.08;;;1.15;;
19219;SDS011;9744;49.364;7.484;2023-05-07T00:10:47;5.32;;;1.30;;
19219;SDS011;9744;49.364;7.484;2023-05-07T00:13:14;5.40;;;1.70;;
19219;SDS011;9744;49.364;7.484;2023-05-07T00:15:41;2.45;;;1.52;;
19219;SDS011;9744;49.364;7.484;2023-05-07T00:18:10;4.32;;;1.63;;
19219;SDS011;9744;49.364;7.484;2023-05-07T00:20:38;1.48;;;1.15;;
19219;SDS011;9744;49.364;7.484;2023-05-07T00:23:05;2.22;;;1.48;;
19219;SDS011;9744;49.364;7.484;2023-05-07T00:25:32;4.45;;;1.58;;
19219;SDS011;9744;49.364;7.484;2023-05-07T00:28:00;2.38;;;1.35;;
19219;SDS011;9744;49.364;7.484;2023-05-07T00:30:29;3.28;;;1.33;;
19219;SDS011;9744;49.364;7.484;2023-05-07T00:32:56;3.25;;;1.58;;
19219;SDS011;9744;49.364;7.484;2023-05-07T00:35:25;3.42;;;1.40;;
19219;SDS011;9744;49.364;7.484;2023-05-07T00:37:54;2.20;;;1.63;;
19219;SDS011;9744;49.364;7.484;2023-05-07T00:40:21;3.78;;;1.77;;
19219;SDS011;9744;49.364;7.484;2023-05-07T00:42:48;4.68;;;1.85;;
19219;SDS011;9744;49.364;7.484;2023-05-07T00:45:16;3.80;;;1.90;;
19219;SDS011;9744;49.364;7.484;2023-05-07T00:47:43;5.00;;;2.55;;
19219;SDS011;9744;49.364;7.484;2023-05-07T00:50:11;3.45;;;1.85;;
19219;SDS011;9744;49.364;7.484;2023-05-07T00:52:40;3.05;;;2.17;;
19219;SDS011;9744;49.364;7.484;2023-05-07T00:55:08;3.22;;;2.03;;
19219;SDS011;9744;49.364;7.484;2023-05-07T00:57:36;2.88;;;2.35;;
19219;SDS011;9744;49.364;7.484;2023-05-07T01:00:05;3.20;;;2.00;;
19219;SDS011;9744;49.364;7.484;2023-05-07T01:02:34;6.47;;;2.00;;
19219;SDS011;9744;49.364;7.484;2023-05-07T01:05:01;2.85;;;1.88;;
19219;SDS011;9744;49.364;7.484;2023-05-07T01:07:31;3.65;;;1.92;;
19219;SDS011;9744;49.364;7.484;2023-05-07T01:10:01;3.38;;;2.60;;
19219;SDS011;9744;49.364;7.484;2023-05-07T01:12:29;5.07;;;2.25;;
19219;SDS011;9744;49.364;7.484;2023-05-07T01:14:57;3.42;;;2.47;;
19219;SDS011;9744;49.364;7.484;2023-05-07T01:17:25;5.07;;;2.17;;
19219;SDS011;9744;49.364;7.484;2023-05-07T01:19:52;5.13;;;2.50;;
19219;SDS011;9744;49.364;7.484;2023-05-07T01:22:29;4.20;;;2.75;;
19219;SDS011;9744;49.364;7.484;2023-05-07T01:24:57;6.63;;;2.58;;
19219;SDS011;9744;49.364;7.484;2023-05-07T01:27:28;3.42;;;2.60;;
19219;SDS011;9744;49.364;7.484;2023-05-07T01:29:55;3.22;;;2.63;;
19219;SDS011;9744;49.364;7.484;2023-05-07T01:32:23;4.00;;;2.83;;
19219;SDS011;9744;49.364;7.484;2023-05-07T01:34:55;4.05;;;2.97;;
19219;SDS011;9744;49.364;7.484;2023-05-07T01:37:25;4.47;;;2.88;;
19219;SDS011;9744;49.364;7.484;2023-05-07T01:39:58;5.45;;;2.90;;
19219;SDS011;9744;49.364;7.484;2023-05-07T01:42:26;7.30;;;3.40;;
19219;SDS011;9744;49.364;7.484;2023-05-07T01:44:54;5.10;;;3.10;;
19219;SDS011;9744;49.364;7.484;2023-05-07T01:47:22;5.80;;;3.40;;
19219;SDS011;9744;49.364;7.484;2023-05-07T01:49:51;4.18;;;2.90;;
19219;SDS011;9744;49.364;7.484;2023-05-07T01:52:19;6.00;;;3.05;;
19219;SDS011;9744;49.364;7.484;2023-05-07T01:54:46;5.35;;;3.17;;
19219;SDS011;9744;49.364;7.484;2023-05-07T01:57:15;7.80;;;3.72;;
19219;SDS011;9744;49.364;7.484;2023-05-07T01:59:42;5.90;;;3.80;;
19219;SDS011;9744;49.364;7.484;2023-05-07T02:02:10;7.85;;;3.97;;
19219;SDS011;9744;49.364;7.484;2023-05-07T02:04:40;7.25;;;4.10;;
19219;SDS011;9744;49.364;7.484;2023-05-07T02:07:08;5.57;;;4.20;;
19219;SDS011;9744;49.364;7.484;2023-05-07T02:09:37;5.90;;;4.10;;
19219;SDS011;9744;49.364;7.484;2023-05-07T02:12:04;5.65;;;3.42;;
19219;SDS011;9744;49.364;7.484;2023-05-07T02:14:33;5.10;;;3.55;;
19219;SDS011;9744;49.364;7.484;2023-05-07T02:17:01;4.95;;;3.50;;
19219;SDS011;9744;49.364;7.484;2023-05-07T02:19:28;4.50;;;3.28;;
19219;SDS011;9744;49.364;7.484;2023-05-07T02:21:55;4.95;;;2.60;;
19219;SDS011;9744;49.364;7.484;2023-05-07T02:24:23;4.25;;;2.83;;
19219;SDS011;9744;49.364;7.484;2023-05-07T02:26:50;4.15;;;2.83;;
19219;SDS011;9744;49.364;7.484;2023-05-07T02:29:17;5.43;;;3.03;;
19219;SDS011;9744;49.364;7.484;2023-05-07T02:31:46;5.90;;;3.30;;
19219;SDS011;9744;49.364;7.484;2023-05-07T02:34:16;6.18;;;3.50;;
19219;SDS011;9744;49.364;7.484;2023-05-07T02:36:43;5.03;;;3.42;;
19219;SDS011;9744;49.364;7.484;2023-05-07T02:39:13;4.25;;;2.88;;
19219;SDS011;9744;49.364;7.484;2023-05-07T02:41:41;4.97;;;3.03;;
19219;SDS011;9744;49.364;7.484;2023-05-07T02:44:08;4.10;;;2.55;;
19219;SDS011;9744;49.364;7.484;2023-05-07T02:46:36;5.13;;;2.72;;
19219;SDS011;9744;49.364;7.484;2023-05-07T02:49:09;2.90;;;2.38;;
19219;SDS011;9744;49.364;7.484;2023-05-07T02:51:37;3.70;;;2.40;;
19219;SDS011;9744;49.364;7.484;2023-05-07T02:54:09;4.95;;;2.78;;
19219;SDS011;9744;49.364;7.484;2023-05-07T02:56:36;4.88;;;2.33;;
19219;SDS011;9744;49.364;7.484;2023-05-07T02:59:04;4.60;;;2.22;;
19219;SDS011;9744;49.364;7.484;2023-05-07T03:01:36;3.03;;;2.33;;
19219;SDS011;9744;49.364;7.484;2023-05-07T03:04:06;3.60;;;2.25;;
19219;SDS011;9744;49.364;7.484;2023-05-07T03:06:34;6.30;;;2.72;;
19219;SDS011;9744;49.364;7.484;2023-05-07T03:09:02;3.58;;;2.50;;
19219;SDS011;9744;49.364;7.484;2023-05-07T03:11:29;4.35;;;2.58;;
19219;SDS011;9744;49.364;7.484;2023-05-07T03:13:57;4.75;;;2.70;;
19219;SDS011;9744;49.364;7.484;2023-05-07T03:16:25;3.53;;;2.47;;
19219;SDS011;9744;49.364;7.484;2023-05-07T03:18:53;2.97;;;2.33;;
19219;SDS011;9744;49.364;7.484;2023-05-07T03:21:20;3.17;;;2.47;;
19219;SDS011;9744;49.364;7.484;2023-05-07T03:23:49;5.95;;;2.70;;
19219;SDS011;9744;49.364;7.484;2023-05-07T03:26:16;3.47;;;2.20;;
19219;SDS011;9744;49.364;7.484;2023-05-07T03:28:44;5.35;;;2.50;;
19219;SDS011;9744;49.364;7.484;2023-05-07T03:31:13;4.95;;;2.53;;
19219;SDS011;9744;49.364;7.484;2023-05-07T03:33:49;2.92;;;2.63;;
19219;SDS011;9744;49.364;7.484;2023-05-07T03:36:18;3.97;;;2.45;;
19219;SDS011;9744;49.364;7.484;2023-05-07T03:38:46;5.22;;;2.85;;
19219;SDS011;9744;49.364;7.484;2023-05-07T03:41:19;3.33;;;2.75;;
19219;SDS011;9744;49.364;7.484;2023-05-07T03:43:47;3.33;;;2.47;;
19219;SDS011;9744;49.364;7.484;2023-05-07T03:46:14;4.25;;;2.90;;
19219;SDS011;9744;49.364;7.484;2023-05-07T03:48:42;3.78;;;2.67;;
19219;SDS011;9744;49.364;7.484;2023-05-07T03:51:12;3.60;;;2.55;;
19219;SDS011;9744;49.364;7.484;2023-05-07T03:53:40;4.47;;;2.40;;
19219;SDS011;9744;49.364;7.484;2023-05-07T03:56:09;4.65;;;2.15;;
19219;SDS011;9744;49.364;7.484;2023-05-07T03:58:38;3.00;;;2.50;;
19219;SDS011;9744;49.364;7.484;2023-05-07T04:01:08;3.33;;;2.63;;
19219;SDS011;9744;49.364;7.484;2023-05-07T04:03:36;4.20;;;2.78;;
19219;SDS011;9744;49.364;7.484;2023-05-07T04:06:04;6.50;;;2.78;;
19219;SDS011;9744;49.364;7.484;2023-05-07T04:08:33;7.25;;;2.78;;
19219;SDS011;9744;49.364;7.484;2023-05-07T04:11:02;3.47;;;2.35;;
19219;SDS011;9744;49.364;7.484;2023-05-07T04:13:33;4.93;;;2.60;;
19219;SDS011;9744;49.364;7.484;2023-05-07T04:16:02;5.18;;;2.38;;
19219;SDS011;9744;49.364;7.484;2023-05-07T04:18:32;3.75;;;2.35;;
19219;SDS011;9744;49.364;7.484;2023-05-07T04:21:00;3.33;;;2.20;;
19219;SDS011;9744;49.364;7.484;2023-05-07T04:23:27;3.70;;;2.40;;
19219;SDS011;9744;49.364;7.484;2023-05-07T04:25:57;3.80;;;2.17;;
19219;SDS011;9744;49.364;7.484;2023-05-07T04:28:33;4.80;;;2.13;;
19219;SDS011;9744;49.364;7.484;2023-05-07T04:31:01;3.30;;;2.08;;
19219;SDS011;9744;49.364;7.484;2023-05-07T04:33:29;3.13;;;1.88;;
19219;SDS011;9744;49.364;7.484;2023-05-07T04:35:58;2.95;;;2.10;;
19219;SDS011;9744;49.364;7.484;2023-05-07T04:38:34;3.25;;;2.17;;
19219;SDS011;9744;49.364;7.484;2023-05-07T04:41:03;3.70;;;2.10;;
19219;SDS011;9744;49.364;7.484;2023-05-07T04:43:35;2.65;;;2.00;;
19219;SDS011;9744;49.364;7.484;2023-05-07T04:46:02;3.78;;;1.90;;
19219;SDS011;9744;49.364;7.484;2023-05-07T04:48:30;3.58;;;2.40;;
19219;SDS011;9744;49.364;7.484;2023-05-07T04:50:59;4.22;;;2.55;;
19219;SDS011;9744;49.364;7.484;2023-05-07T04:53:27;3.97;;;2.22;;
19219;SDS011;9744;49.364;7.484;2023-05-07T04:55:55;6.57;;;3.10;;
19219;SDS011;9744;49.364;7.484;2023-05-07T04:58:24;5.55;;;3.53;;
19219;SDS011;9744;49.364;7.484;2023-05-07T05:00:53;4.30;;;2.97;;
19219;SDS011;9744;49.364;7.484;2023-05-07T05:03:22;6.20;;;3.65;;
19219;SDS011;9744;49.364;7.484;2023-05-07T05:05:50;6.13;;;4.00;;
19219;SDS011;9744;49.364;7.484;2023-05-07T05:08:19;5.97;;;3.42;;
19219;SDS011;9744;49.364;7.484;2023-05-07T05:10:46;5.82;;;2.95;;
19219;SDS011;9744;49.364;7.484;2023-05-07T05:13:15;5.80;;;3.13;;
19219;SDS011;9744;49.364;7.484;2023-05-07T05:15:43;6.70;;;3.35;;
19219;SDS011;9744;49.364;7.484;2023-05-07T05:18:12;4.95;;;2.83;;
19219;SDS011;9744;49.364;7.484;2023-05-07T05:20:39;4.07;;;2.72;;
19219;SDS011;9744;49.364;7.484;2023-05-07T05:23:07;3.47;;;2.50;;
19219;SDS011;9744;49.364;7.484;2023-05-07T05:25:35;5.05;;;2.50;;
19219;SDS011;9744;49.364;7.484;2023-05-07T05:28:04;3.53;;;2.28;;
19219;SDS011;9744;49.364;7.484;2023-05-07T05:30:33;3.97;;;2.58;;
19219;SDS011;9744;49.364;7.484;2023-05-07T05:33:01;3.88;;;2.90;;
19219;SDS011;9744;49.364;7.484;2023-05-07T05:35:30;3.17;;;2.40;;
19219;SDS011;9744;49.364;7.484;2023-05-07T05:38:01;3.55;;;2.63;;
19219;SDS011;9744;49.364;7.484;2023-05-07T05:40:29;3.92;;;2.83;;
19219;SDS011;9744;49.364;7.484;2023-05-07T05:42:56;5.28;;;2.72;;
19219;SDS011;9744;49.364;7.484;2023-05-07T05:45:24;4.05;;;2.88;;
19219;SDS011;9744;49.364;7.484;2023-05-07T05:47:51;4.53;;;3.20;;
19219;SDS011;9744;49.364;7.484;2023-05-07T05:50:19;6.07;;;3.45;;
19219;SDS011;9744;49.364;7.484;2023-05-07T05:52:48;5.03;;;3.25;;
19219;SDS011;9744;49.364;7.484;2023-05-07T05:55:17;5.00;;;2.65;;
19219;SDS011;9744;49.364;7.484;2023-05-07T05:57:45;5.53;;;2.95;;
19219;SDS011;9744;49.364;7.484;2023-05-07T06:00:13;5.97;;;2.83;;
19219;SDS011;9744;49.364;7.484;2023-05-07T06:02:44;4.13;;;2.17;;
19219;SDS011;9744;49.364;7.484;2023-05-07T06:05:16;5.30;;;2.42;;
19219;SDS011;9744;49.364;7.484;2023-05-07T06:07:45;3.30;;;2.10;;
19219;SDS011;9744;49.364;7.484;2023-05-07T06:10:13;4.32;;;2.42;;
19219;SDS011;9744;49.364;7.484;2023-05-07T06:12:41;3.53;;;2.17;;
19219;SDS011;9744;49.364;7.484;2023-05-07T06:15:09;5.10;;;2.50;;
19219;SDS011;9744;49.364;7.484;2023-05-07T06:17:37;3.88;;;2.20;;
19219;SDS011;9744;49.364;7.484;2023-05-07T06:20:06;4.68;;;2.75;;
19219;SDS011;9744;49.364;7.484;2023-05-07T06:22:34;4.78;;;2.42;;
19219;SDS011;9744;49.364;7.484;2023-05-07T06:25:02;5.50;;;2.90;;
19219;SDS011;9744;49.364;7.484;2023-05-07T06:27:31;7.00;;;4.05;;
19219;SDS011;9744;49.364;7.484;2023-05-07T06:29:58;12.68;;;8.35;;
19219;SDS011;9744;49.364;7.484;2023-05-07T06:32:25;10.75;;;6.18;;
19219;SDS011;9744;49.364;7.484;2023-05-07T06:34:53;11.82;;;7.47;;
19219;SDS011;9744;49.364;7.484;2023-05-07T06:37:21;11.75;;;7.53;;
19219;SDS011;9744;49.364;7.484;2023-05-07T06:40:02;6.68;;;4.20;;
19219;SDS011;9744;49.364;7.484;2023-05-07T06:42:35;10.60;;;7.03;;
19219;SDS011;9744;49.364;7.484;2023-05-07T06:45:20;10.13;;;6.18;;
19219;SDS011;9744;49.364;7.484;2023-05-07T06:47:48;7.30;;;5.35;;
19219;SDS011;9744;49.364;7.484;2023-05-07T06:50:15;6.13;;;4.90;;
19219;SDS011;9744;49.364;7.484;2023-05-07T06:52:45;7.38;;;4.47;;
19219;SDS011;9744;49.364;7.484;2023-05-07T06:55:13;7.35;;;4.75;;
19219;SDS011;9744;49.364;7.484;2023-05-07T06:57:42;8.30;;;4.43;;
19219;SDS011;9744;49.364;7.484;2023-05-07T07:00:10;3.97;;;2.80;;
19219;SDS011;9744;49.364;7.484;2023-05-07T07:02:47;6.13;;;3.40;;
19219;SDS011;9744;49.364;7.484;2023-05-07T07:05:17;5.88;;;3.28;;
19219;SDS011;9744;49.364;7.484;2023-05-07T07:07:45;4.63;;;2.75;;
19219;SDS011;9744;49.364;7.484;2023-05-07T07:10:18;3.08;;;2.70;;
19219;SDS011;9744;49.364;7.484;2023-05-07T07:12:48;4.85;;;2.85;;
19219;SDS011;9744;49.364;7.484;2023-05-07T07:15:16;5.72;;;2.60;;
19219;SDS011;9744;49.364;7.484;2023-05-07T07:17:44;3.92;;;2.40;;
19219;SDS011;9744;49.364;7.484;2023-05-07T07:20:11;2.13;;;1.90;;
19219;SDS011;9744;49.364;7.484;2023-05-07T07:22:39;3.55;;;2.35;;
19219;SDS011;9744;49.364;7.484;2023-05-07T07:25:07;3.05;;;2.47;;
19219;SDS011;9744;49.364;7.484;2023-05-07T07:27:36;3.33;;;2.15;;
19219;SDS011;9744;49.364;7.484;2023-05-07T07:30:07;3.42;;;2.00;;
19219;SDS011;9744;49.364;7.484;2023-05-07T07:32:37;5.68;;;2.42;;
19219;SDS011;9744;49.364;7.484;2023-05-07T07:35:05;2.80;;;1.80;;
19219;SDS011;9744;49.364;7.484;2023-05-07T07:37:33;4.32;;;2.30;;
19219;SDS011;9744;49.364;7.484;2023-05-07T07:40:02;7.55;;;2.25;;
19219;SDS011;9744;49.364;7.484;2023-05-07T07:42:30;3.17;;;1.70;;
19219;SDS011;9744;49.364;7.484;2023-05-07T07:44:58;2.53;;;1.50;;
19219;SDS011;9744;49.364;7.484;2023-05-07T07:47:30;4.20;;;1.92;;
19219;SDS011;9744;49.364;7.484;2023-05-07T07:49:57;4.53;;;2.58;;
19219;SDS011;9744;49.364;7.484;2023-05-07T07:52:25;4.00;;;2.05;;
19219;SDS011;9744;49.364;7.484;2023-05-07T07:54:52;4.15;;;1.40;;
19219;SDS011;9744;49.364;7.484;2023-05-07T07:57:21;2.83;;;1.85;;
19219;SDS011;9744;49.364;7.484;2023-05-07T07:59:48;4.35;;;1.95;;
19219;SDS011;9744;49.364;7.484;2023-05-07T08:02:16;3.15;;;2.03;;
19219;SDS011;9744;49.364;7.484;2023-05-07T08:04:45;2.90;;;1.88;;
19219;SDS011;9744;49.364;7.484;2023-05-07T08:07:13;4.47;;;2.38;;
19219;SDS011;9744;49.364;7.484;2023-05-07T08:09:43;21.42;;;2.60;;
19219;SDS011;9744;49.364;7.484;2023-05-07T08:12:11;4.65;;;2.13;;
19219;SDS011;9744;49.364;7.484;2023-05-07T08:14:39;2.95;;;1.90;;
19219;SDS011;9744;49.364;7.484;2023-05-07T08:17:07;4.03;;;1.50;;
19219;SDS011;9744;49.364;7.484;2023-05-07T08:19:35;2.92;;;2.20;;
19219;SDS011;9744;49.364;7.484;2023-05-07T08:22:05;2.00;;;1.40;;
19219;SDS011;9744;49.364;7.484;2023-05-07T08:24:33;4.05;;;1.88;;
19219;SDS011;9744;49.364;7.484;2023-05-07T08:27:01;5.10;;;1.77;;
19219;SDS011;9744;49.364;7.484;2023-05-07T08:29:28;2.92;;;2.05;;
19219;SDS011;9744;49.364;7.484;2023-05-07T08:31:56;5.88;;;2.15;;
19219;SDS011;9744;49.364;7.484;2023-05-07T08:34:23;3.15;;;2.20;;
19219;SDS011;9744;49.364;7.484;2023-05-07T08:36:52;6.85;;;2.83;;
19219;SDS011;9744;49.364;7.484;2023-05-07T08:39:25;2.67;;;2.13;;
19219;SDS011;9744;49.364;7.484;2023-05-07T08:41:54;4.18;;;2.45;;
19219;SDS011;9744;49.364;7.484;2023-05-07T08:44:24;2.40;;;2.20;;
19219;SDS011;9744;49.364;7.484;2023-05-07T08:46:53;2.00;;;1.65;;
19219;SDS011;9744;49.364;7.484;2023-05-07T08:49:23;2.80;;;2.45;;
19219;SDS011;9744;49.364;7.484;2023-05-07T08:51:51;4.80;;;3.33;;
19219;SDS011;9744;49.364;7.484;2023-05-07T08:54:20;6.07;;;2.88;;
19219;SDS011;9744;49.364;7.484;2023-05-07T08:56:49;3.47;;;2.20;;
19219;SDS011;9744;49.364;7.484;2023-05-07T08:59:17;4.82;;;3.65;;
19219;SDS011;9744;49.364;7.484;2023-05-07T09:01:45;4.28;;;3.17;;
19219;SDS011;9744;49.364;7.484;2023-05-07T09:04:13;3.92;;;2.92;;
19219;SDS011;9744;49.364;7.484;2023-05-07T09:06:41;3.47;;;2.63;;
19219;SDS011;9744;49.364;7.484;2023-05-07T09:09:10;6.00;;;2.47;;
19219;SDS011;9744;49.364;7.484;2023-05-07T09:11:43;5.88;;;2.67;;
19219;SDS011;9744;49.364;7.484;2023-05-07T09:14:14;3.88;;;2.47;;
19219;SDS011;9744;49.364;7.484;2023-05-07T09:16:43;3.38;;;2.30;;
19219;SDS011;9744;49.364;7.484;2023-05-07T09:19:13;2.42;;;2.20;;
19219;SDS011;9744;49.364;7.484;2023-05-07T09:21:44;4.00;;;2.20;;
19219;SDS011;9744;49.364;7.484;2023-05-07T09:24:14;1.80;;;1.67;;
19219;SDS011;9744;49.364;7.484;2023-05-07T09:26:42;2.22;;;1.77;;
19219;SDS011;9744;49.364;7.484;2023-05-07T09:29:10;2.70;;;1.85;;
19219;SDS011;9744;49.364;7.484;2023-05-07T09:31:40;1.88;;;1.70;;
19219;SDS011;9744;49.364;7.484;2023-05-07T09:34:10;2.33;;;2.13;;
19219;SDS011;9744;49.364;7.484;2023-05-07T09:36:40;2.60;;;1.80;;
19219;SDS011;9744;49.364;7.484;2023-05-07T09:39:08;2.60;;;1.63;;
19219;SDS011;9744;49.364;7.484;2023-05-07T09:41:42;2.65;;;1.70;;
19219;SDS011;9744;49.364;7.484;2023-05-07T09:44:15;3.05;;;1.55;;
19219;SDS011;9744;49.364;7.484;2023-05-07T09:46:51;1.40;;;1.30;;
19219;SDS011;9744;49.364;7.484;2023-05-07T09:49:28;2.40;;;1.45;;
19219;SDS011;9744;49.364;7.484;2023-05-07T09:52:02;2.83;;;1.40;;
19219;SDS011;9744;49.364;7.484;2023-05-07T09:54:34;2.78;;;1.55;;
19219;SDS011;9744;49.364;7.484;2023-05-07T09:57:03;3.25;;;1.58;;
19219;SDS011;9744;49.364;7.484;2023-05-07T09:59:33;4.70;;;1.75;;
19219;SDS011;9744;49.364;7.484;2023-05-07T10:02:09;4.93;;;1.63;;
19219;SDS011;9744;49.364;7.484;2023-05-07T10:04:44;2.35;;;1.23;;
19219;SDS011;9744;49.364;7.484;2023-05-07T10:07:14;2.50;;;1.33;;
19219;SDS011;9744;49.364;7.484;2023-05-07T10:09:43;4.43;;;0.95;;
19219;SDS011;9744;49.364;7.484;2023-05-07T10:12:21;3.50;;;1.25;;
19219;SDS011;9744;49.364;7.484;2023-05-07T10:14:50;1.23;;;1.00;;
19219;SDS011;9744;49.364;7.484;2023-05-07T10:17:21;4.25;;;1.08;;
19219;SDS011;9744;49.364;7.484;2023-05-07T10:19:50;2.53;;;1.20;;
19219;SDS011;9744;49.364;7.484;2023-05-07T10:22:22;2.50;;;1.20;;
19219;SDS011;9744;49.364;7.484;2023-05-07T10:24:53;1.23;;;1.13;;
19219;SDS011;9744;49.364;7.484;2023-05-07T10:27:24;3.53;;;0.90;;
19219;SDS011;9744;49.364;7.484;2023-05-07T10:29:58;3.33;;;0.93;;
19219;SDS011;9744;49.364;7.484;2023-05-07T10:32:39;2.90;;;1.08;;
19219;SDS011;9744;49.364;7.484;2023-05-07T10:35:14;2.28;;;0.85;;
19219;SDS011;9744;49.364;7.484;2023-05-07T10:37:47;2.28;;;0.95;;
19219;SDS011;9744;49.364;7.484;2023-05-07T10:40:16;1.52;;;0.80;;
19219;SDS011;9744;49.364;7.484;2023-05-07T10:42:55;3.25;;;0.88;;
19219;SDS011;9744;49.364;7.484;2023-05-07T10:45:26;1.08;;;0.88;;
19219;SDS011;9744;49.364;7.484;2023-05-07T10:48:12;2.88;;;0.93;;
19219;SDS011;9744;49.364;7.484;2023-05-07T10:50:43;1.60;;;0.98;;
19219;SDS011;9744;49.364;7.484;2023-05-07T10:53:22;2.03;;;0.90;;
19219;SDS011;9744;49.364;7.484;2023-05-07T11:02:11;3.10;;;0.80;;
19219;SDS011;9744;49.364;7.484;2023-05-07T11:08:07;1.40;;;0.80;;
19219;SDS011;9744;49.364;7.484;2023-05-07T11:10:48;1.42;;;0.88;;
19219;SDS011;9744;49.364;7.484;2023-05-07T11:13:41;4.97;;;1.20;;
19219;SDS011;9744;49.364;7.484;2023-05-07T11:16:17;2.55;;;1.33;;
19219;SDS011;9744;49.364;7.484;2023-05-07T11:18:48;4.10;;;1.05;;
19219;SDS011;9744;49.364;7.484;2023-05-07T11:21:36;1.58;;;0.70;;
19219;SDS011;9744;49.364;7.484;2023-05-07T11:24:14;1.05;;;0.70;;
19219;SDS011;9744;49.364;7.484;2023-05-07T11:26:52;3.38;;;0.90;;
19219;SDS011;9744;49.364;7.484;2023-05-07T11:29:22;4.32;;;1.05;;
19219;SDS011;9744;49.364;7.484;2023-05-07T11:31:56;2.53;;;1.08;;
19219;SDS011;9744;49.364;7.484;2023-05-07T11:34:30;2.72;;;1.02;;
19219;SDS011;9744;49.364;7.484;2023-05-07T11:40:04;1.52;;;1.05;;
19219;SDS011;9744;49.364;7.484;2023-05-07T11:42:33;2.97;;;1.10;;
19219;SDS011;9744;49.364;7.484;2023-05-07T11:45:02;2.60;;;1.00;;
19219;SDS011;9744;49.364;7.484;2023-05-07T11:47:31;8.00;;;1.10;;
19219;SDS011;9744;49.364;7.484;2023-05-07T11:50:02;0.73;;;0.73;;
19219;SDS011;9744;49.364;7.484;2023-05-07T11:52:33;6.20;;;1.20;;
19219;SDS011;9744;49.364;7.484;2023-05-07T11:55:01;5.05;;;1.05;;
19219;SDS011;9744;49.364;7.484;2023-05-07T11:57:30;0.80;;;0.80;;
19219;SDS011;9744;49.364;7.484;2023-05-07T12:00:00;0.80;;;0.80;;
19219;SDS011;9744;49.364;7.484;2023-05-07T12:02:38;1.15;;;0.90;;
19219;SDS011;9744;49.364;7.484;2023-05-07T12:05:05;2.30;;;1.00;;
19219;SDS011;9744;49.364;7.484;2023-05-07T12:07:34;3.25;;;1.50;;
19219;SDS011;9744;49.364;7.484;2023-05-07T12:10:04;5.00;;;4.05;;
19219;SDS011;9744;49.364;7.484;2023-05-07T12:12:37;3.45;;;1.70;;
19219;SDS011;9744;49.364;7.484;2023-05-07T12:15:05;1.58;;;1.17;;
19219;SDS011;9744;49.364;7.484;2023-05-07T12:17:34;2.03;;;1.00;;
19219;SDS011;9744;49.364;7.484;2023-05-07T12:20:01;2.53;;;1.02;;
19219;SDS011;9744;49.364;7.484;2023-05-07T12:22:30;1.10;;;0.98;;
19219;SDS011;9744;49.364;7.484;2023-05-07T12:24:59;0.75;;;0.75;;
19219;SDS011;9744;49.364;7.484;2023-05-07T12:27:26;1.95;;;1.00;;
19219;SDS011;9744;49.364;7.484;2023-05-07T12:29:53;2.97;;;1.05;;
19219;SDS011;9744;49.364;7.484;2023-05-07T12:32:21;3.10;;;1.08;;
19219;SDS011;9744;49.364;7.484;2023-05-07T12:34:49;1.55;;;0.98;;
19219;SDS011;9744;49.364;7.484;2023-05-07T12:37:22;2.60;;;0.93;;
19219;SDS011;9744;49.364;7.484;2023-05-07T12:40:04;1.58;;;1.13;;
19219;SDS011;9744;49.364;7.484;2023-05-07T12:42:35;2.10;;;0.93;;
19219;SDS011;9744;49.364;7.484;2023-05-07T12:45:07;2.75;;;1.00;;
19219;SDS011;9744;49.364;7.484;2023-05-07T12:47:35;1.48;;;0.90;;
19219;SDS011;9744;49.364;7.484;2023-05-07T12:50:04;3.63;;;1.23;;
19219;SDS011;9744;49.364;7.484;2023-05-07T12:52:33;5.82;;;1.17;;
19219;SDS011;9744;49.364;7.484;2023-05-07T12:55:05;6.95;;;1.25;;
19219;SDS011;9744;49.364;7.484;2023-05-07T12:57:37;1.75;;;1.02;;
19219;SDS011;9744;49.364;7.484;2023-05-07T13:00:06;2.28;;;1.10;;
19219;SDS011;9744;49.364;7.484;2023-05-07T13:02:37;2.05;;;1.23;;
19219;SDS011;9744;49.364;7.484;2023-05-07T13:05:05;3.20;;;0.80;;
19219;SDS011;9744;49.364;7.484;2023-05-07T13:07:33;4.28;;;1.33;;
19219;SDS011;9744;49.364;7.484;2023-05-07T13:10:02;3.17;;;1.30;;
19219;SDS011;9744;49.364;7.484;2023-05-07T13:12:31;2.33;;;1.30;;
19219;SDS011;9744;49.364;7.484;2023-05-07T13:14:58;2.50;;;1.33;;
19219;SDS011;9744;49.364;7.484;2023-05-07T13:17:25;3.45;;;1.70;;
19219;SDS011;9744;49.364;7.484;2023-05-07T13:19:53;3.42;;;1.20;;
19219;SDS011;9744;49.364;7.484;2023-05-07T13:22:20;1.52;;;1.27;;
19219;SDS011;9744;49.364;7.484;2023-05-07T13:24:47;3.08;;;1.70;;
19219;SDS011;9744;49.364;7.484;2023-05-07T13:27:14;3.05;;;1.67;;
19219;SDS011;9744;49.364;7.484;2023-05-07T13:29:43;2.78;;;1.50;;
19219;SDS011;9744;49.364;7.484;2023-05-07T13:32:10;4.18;;;2.38;;
19219;SDS011;9744;49.364;7.484;2023-05-07T13:34:38;3.20;;;2.30;;
19219;SDS011;9744;49.364;7.484;2023-05-07T13:37:06;5.38;;;1.98;;
19219;SDS011;9744;49.364;7.484;2023-05-07T13:39:34;4.13;;;1.52;;
19219;SDS011;9744;49.364;7.484;2023-05-07T13:42:01;2.13;;;1.50;;
19219;SDS011;9744;49.364;7.484;2023-05-07T13:44:28;5.68;;;2.22;;
19219;SDS011;9744;49.364;7.484;2023-05-07T13:46:57;9.02;;;2.35;;
19219;SDS011;9744;49.364;7.484;2023-05-07T13:49:24;12.13;;;3.58;;
19219;SDS011;9744;49.364;7.484;2023-05-07T13:51:51;17.70;;;7.28;;
19219;SDS011;9744;49.364;7.484;2023-05-07T13:54:19;13.43;;;5.63;;
19219;SDS011;9744;49.364;7.484;2023-05-07T13:56:46;12.15;;;3.58;;
19219;SDS011;9744;49.364;7.484;2023-05-07T13:59:14;10.38;;;2.53;;
19219;SDS011;9744;49.364;7.484;2023-05-07T14:01:41;9.77;;;2.42;;
19219;SDS011;9744;49.364;7.484;2023-05-07T14:04:10;8.73;;;2.10;;
19219;SDS011;9744;49.364;7.484;2023-05-07T14:06:37;12.02;;;2.40;;
19219;SDS011;9744;49.364;7.484;2023-05-07T14:09:04;4.53;;;1.83;;
19219;SDS011;9744;49.364;7.484;2023-05-07T14:11:32;9.02;;;1.70;;
19219;SDS011;9744;49.364;7.484;2023-05-07T14:13:59;6.43;;;1.45;;
19219;SDS011;9744;49.364;7.484;2023-05-07T14:16:26;5.05;;;1.40;;
19219;SDS011;9744;49.364;7.484;2023-05-07T14:18:54;3.40;;;1.17;;
19219;SDS011;9744;49.364;7.484;2023-05-07T14:21:23;9.90;;;2.03;;
19219;SDS011;9744;49.364;7.484;2023-05-07T14:23:51;6.22;;;1.73;;
19219;SDS011;9744;49.364;7.484;2023-05-07T14:26:19;8.88;;;2.58;;
19219;SDS011;9744;49.364;7.484;2023-05-07T14:28:48;10.75;;;5.75;;
19219;SDS011;9744;49.364;7.484;2023-05-07T14:31:15;14.35;;;5.72;;
19219;SDS011;9744;49.364;7.484;2023-05-07T14:33:43;10.95;;;4.25;;
19219;SDS011;9744;49.364;7.484;2023-05-07T14:36:10;5.88;;;1.77;;
19219;SDS011;9744;49.364;7.484;2023-05-07T14:38:39;6.32;;;2.97;;
19219;SDS011;9744;49.364;7.484;2023-05-07T14:41:06;7.10;;;3.13;;
19219;SDS011;9744;49.364;7.484;2023-05-07T14:43:34;5.95;;;1.75;;
19219;SDS011;9744;49.364;7.484;2023-05-07T14:46:01;11.25;;;3.90;;
19219;SDS011;9744;49.364;7.484;2023-05-07T14:48:28;9.73;;;5.25;;
19219;SDS011;9744;49.364;7.484;2023-05-07T14:50:56;15.77;;;9.95;;
19219;SDS011;9744;49.364;7.484;2023-05-07T14:53:23;36.05;;;18.45;;
19219;SDS011;9744;49.364;7.484;2023-05-07T14:55:52;45.45;;;23.05;;
19219;SDS011;9744;49.364;7.484;2023-05-07T14:58:20;51.47;;;22.58;;
19219;SDS011;9744;49.364;7.484;2023-05-07T15:00:47;31.85;;;14.55;;
19219;SDS011;9744;49.364;7.484;2023-05-07T15:03:15;49.70;;;23.00;;
19219;SDS011;9744;49.364;7.484;2023-05-07T15:05:44;49.78;;;24.63;;
19219;SDS011;9744;49.364;7.484;2023-05-07T15:08:12;41.85;;;21.73;;
19219;SDS011;9744;49.364;7.484;2023-05-07T15:10:39;29.77;;;14.23;;
19219;SDS011;9744;49.364;7.484;2023-05-07T15:13:08;31.02;;;13.98;;
19219;SDS011;9744;49.364;7.484;2023-05-07T15:15:36;20.15;;;9.80;;
19219;SDS011;9744;49.364;7.484;2023-05-07T15:18:05;18.98;;;9.00;;
19219;SDS011;9744;49.364;7.484;2023-05-07T15:20:33;22.60;;;10.55;;
19219;SDS011;9744;49.364;7.484;2023-05-07T15:23:00;18.20;;;8.68;;
19219;SDS011;9744;49.364;7.484;2023-05-07T15:25:28;11.20;;;5.88;;